createdAt,value
2023-04-15T00:01:01.209Z,3
2023-04-15T00:03:57.816Z,3.4200000000000004
2023-04-15T00:06:54.329Z,3.06
2023-04-15T00:09:49.843Z,3.12
2023-04-15T00:12:46.444Z,2.98
2023-04-15T00:15:43.979Z,2.6799999999999997
2023-04-15T00:18:40.571Z,2.98
2023-04-15T00:21:37.135Z,2.32
2023-04-15T00:24:33.644Z,2.42
2023-04-15T00:27:29.223Z,2.28
2023-04-15T00:33:30.308Z,3.06
2023-04-15T00:36:25.860Z,3.02
2023-04-15T00:39:22.389Z,2.5
2023-04-15T00:42:18.970Z,2.44
2023-04-15T00:45:15.573Z,2.62
2023-04-15T00:48:13.092Z,2.6
2023-04-15T00:51:09.772Z,4.260000000000001
2023-04-15T00:54:06.232Z,3.9799999999999995
2023-04-15T00:57:02.788Z,4.720000000000001
2023-04-15T01:00:00.393Z,3.1800000000000006
2023-04-15T01:02:57.101Z,3.22
2023-04-15T01:05:57.440Z,4
2023-04-15T01:08:53.978Z,3.8600000000000003
2023-04-15T01:11:50.567Z,3.54
2023-04-15T01:14:46.126Z,2.54
2023-04-15T01:20:49.226Z,2.12
2023-04-15T01:23:47.758Z,2.6
2023-04-15T01:26:45.337Z,2.5
2023-04-15T01:29:42.870Z,2.5200000000000005
2023-04-15T01:32:39.443Z,3.78
2023-04-15T01:35:37.006Z,5.58
2023-04-15T01:38:36.578Z,4.2
2023-04-15T01:41:33.111Z,4
2023-04-15T01:44:29.661Z,4.44
2023-04-15T01:47:27.258Z,3.9599999999999995
2023-04-15T01:50:22.774Z,3.1199999999999997
2023-04-15T01:53:19.370Z,3.1800000000000006
2023-04-15T01:56:16.992Z,3.1800000000000006
2023-04-15T01:59:12.469Z,3.78
2023-04-15T02:02:08.171Z,3.5200000000000005
2023-04-15T02:05:05.623Z,3.46
2023-04-15T02:08:04.140Z,3.1800000000000006
2023-04-15T02:11:00.680Z,2.96
2023-04-15T02:13:56.280Z,2.32
2023-04-15T02:16:52.915Z,2.5599999999999996
2023-04-15T02:19:49.383Z,4.42
2023-04-15T02:22:49.937Z,4.2
2023-04-15T02:25:53.423Z,3.7600000000000002
2023-04-15T02:28:49.030Z,4.760000000000001
2023-04-15T02:31:45.661Z,5.0200000000000005
2023-04-15T02:34:42.136Z,4.9799999999999995
2023-04-15T02:37:42.706Z,5.5600000000000005
2023-04-15T02:40:39.247Z,5.619999999999999
2023-04-15T02:43:37.803Z,4.16
2023-04-15T02:46:33.355Z,6.639999999999999
2023-04-15T02:49:31.016Z,5.38
2023-04-15T02:52:26.480Z,4.06
2023-04-15T02:58:29.566Z,5.08
2023-04-15T03:04:30.698Z,5.82
2023-04-15T03:07:26.191Z,5.7
2023-04-15T03:10:21.816Z,6.139999999999999
2023-04-15T03:13:17.382Z,5.94
2023-04-15T03:16:14.009Z,5.159999999999999
2023-04-15T03:19:09.488Z,3.9200000000000004
2023-04-15T03:25:11.555Z,2.7
2023-04-15T03:28:07.130Z,2.2199999999999998
2023-04-15T03:31:02.721Z,2.4
2023-04-15T03:33:58.209Z,2.4
2023-04-15T03:36:53.779Z,2.44
2023-04-15T03:39:49.328Z,2.6799999999999997
2023-04-15T03:42:44.950Z,2.6399999999999997
2023-04-15T03:45:41.514Z,3.2600000000000002
2023-04-15T03:48:38.054Z,3.3600000000000003
2023-04-15T03:51:33.653Z,3.4800000000000004
2023-04-15T03:54:31.191Z,3.7199999999999998
2023-04-15T03:57:27.739Z,2.84
2023-04-15T04:00:23.298Z,3.8600000000000003
2023-04-15T04:03:20.153Z,3.3200000000000003
2023-04-15T04:06:16.393Z,3.44
2023-04-15T04:09:12.967Z,4.739999999999999
2023-04-15T04:12:09.569Z,4.62
2023-04-15T04:15:06.087Z,4.119999999999999
2023-04-15T04:18:01.734Z,4.359999999999999
2023-04-15T04:20:57.222Z,5.3
2023-04-15T04:23:52.818Z,6.0600000000000005
2023-04-15T04:26:48.328Z,6.179999999999999
2023-04-15T04:29:43.914Z,7.519999999999999
2023-04-15T04:32:39.452Z,7.659999999999999
2023-04-15T04:35:36.997Z,6.8
2023-04-15T04:38:32.547Z,6.0200000000000005
2023-04-15T04:41:28.185Z,3.72
2023-04-15T04:44:23.688Z,4.86
2023-04-15T04:47:20.226Z,5.24
2023-04-15T04:50:16.810Z,5
2023-04-15T04:53:13.379Z,4.68
2023-04-15T04:56:08.952Z,3.9200000000000004
2023-04-15T04:59:04.476Z,4.14
2023-04-15T05:02:01.157Z,4.220000000000001
2023-04-15T05:04:56.603Z,4.840000000000001
2023-04-15T05:07:53.164Z,5.720000000000001
2023-04-15T05:10:49.704Z,6.92
2023-04-15T05:13:45.289Z,7.24
2023-04-15T05:16:40.880Z,7.380000000000001
2023-04-15T05:19:36.452Z,6.039999999999999
2023-04-15T05:22:33.980Z,6.06
2023-04-15T05:25:29.515Z,7.88
2023-04-15T05:28:27.097Z,6.360000000000001
2023-04-15T05:31:22.697Z,5.46
2023-04-15T05:34:19.213Z,4.92
2023-04-15T05:37:15.779Z,4.88
2023-04-15T05:40:11.335Z,4.4
2023-04-15T05:43:06.932Z,4.279999999999999
2023-04-15T05:46:03.447Z,4.54
2023-04-15T05:48:59.064Z,4.58
2023-04-15T05:51:54.590Z,4.4799999999999995
2023-04-15T05:54:50.121Z,4.26
2023-04-15T05:57:45.677Z,4.4
2023-04-15T06:00:43.262Z,5.08
2023-04-15T06:03:39.990Z,5.2
2023-04-15T06:06:35.331Z,5.719999999999999
2023-04-15T06:09:30.954Z,4.44
2023-04-15T06:12:28.473Z,5.3
2023-04-15T06:15:24.050Z,4.26
2023-04-15T06:18:19.576Z,4.24
2023-04-15T06:21:15.156Z,4.4
2023-04-15T06:24:12.737Z,3.44
2023-04-15T06:27:08.298Z,3.5799999999999996
2023-04-15T06:30:04.857Z,4.76
2023-04-15T06:33:00.412Z,4.0200000000000005
2023-04-15T06:35:55.974Z,2.8000000000000003
2023-04-15T06:38:51.510Z,3.1399999999999997
2023-04-15T06:41:47.135Z,3.22
2023-04-15T06:44:42.663Z,3.0799999999999996
2023-04-15T06:47:38.216Z,3.2600000000000002
2023-04-15T06:50:35.794Z,2.72
2023-04-15T06:53:31.351Z,2.38
2023-04-15T06:56:26.898Z,2.8200000000000003
2023-04-15T06:59:22.446Z,2.7400000000000007
2023-04-15T07:02:19.267Z,2.38
2023-04-15T07:05:14.608Z,2.5
2023-04-15T07:08:10.206Z,3.06
2023-04-15T07:11:05.708Z,1.5399999999999998
2023-04-15T07:14:03.238Z,1.7599999999999998
2023-04-15T07:16:58.819Z,2.04
2023-04-15T07:19:55.352Z,1.6800000000000002
2023-04-15T07:22:50.945Z,1.44
2023-04-15T07:25:47.498Z,1.52
2023-04-15T07:28:43.052Z,1.7399999999999998
2023-04-15T07:31:40.635Z,1.8
2023-04-15T07:34:37.162Z,1.7399999999999998
2023-04-15T07:37:33.767Z,1.72
2023-04-15T07:40:30.257Z,1.94
2023-04-15T07:43:25.840Z,2.42
2023-04-15T07:46:23.421Z,2.2800000000000002
2023-04-15T07:49:20.973Z,1.48
2023-04-15T07:52:17.503Z,2.2
2023-04-15T07:55:13.102Z,2.22
2023-04-15T07:58:08.636Z,1.44
2023-04-15T08:01:05.201Z,2.12
2023-04-15T08:04:00.903Z,1.2799999999999998
2023-04-15T08:06:56.329Z,1.42
2023-04-15T08:09:52.934Z,1.3800000000000001
2023-04-15T08:12:49.452Z,0.7
2023-04-15T08:15:46.043Z,1
2023-04-15T08:18:42.566Z,1.6199999999999999
2023-04-15T08:21:38.148Z,1.1400000000000001
2023-04-15T08:24:34.697Z,1.1600000000000001
2023-04-15T08:27:31.238Z,1.42
2023-04-15T08:30:27.788Z,1.6800000000000002
2023-04-15T08:33:23.361Z,1.92
2023-04-15T08:36:19.944Z,1.3400000000000003
2023-04-15T08:39:16.487Z,1.5
2023-04-15T08:42:17.018Z,1.58
2023-04-15T08:45:14.608Z,0.8800000000000001
2023-04-15T08:48:13.138Z,0.9800000000000001
2023-04-15T08:51:10.677Z,1.5599999999999998
2023-04-15T08:54:08.250Z,1.6600000000000001
2023-04-15T08:57:04.766Z,1.58
2023-04-15T09:00:05.366Z,1
2023-04-15T09:03:02.028Z,1.1800000000000002
2023-04-15T09:05:58.463Z,1.06
2023-04-15T09:08:55.087Z,5.52
2023-04-15T09:11:51.618Z,2.8600000000000003
2023-04-15T09:14:49.136Z,4.9
2023-04-15T09:17:45.799Z,1.78
2023-04-15T09:20:42.275Z,2.2600000000000002
2023-04-15T09:23:47.770Z,1.42
2023-04-15T09:26:43.374Z,0.86
2023-04-15T09:29:41.892Z,1.4599999999999997
2023-04-15T09:32:49.492Z,0.6200000000000001
2023-04-15T09:35:49.958Z,0.54
2023-04-15T09:38:50.517Z,0.8
2023-04-15T09:41:59.047Z,0.7
2023-04-15T09:44:54.603Z,0.9800000000000001
2023-04-15T09:48:05.133Z,0.76
2023-04-15T09:51:01.710Z,0.8
2023-04-15T09:53:58.243Z,0.8800000000000001
2023-04-15T09:56:55.811Z,0.8400000000000001
2023-04-15T09:59:51.437Z,0.7999999999999999
2023-04-15T10:02:49.170Z,0.48
2023-04-15T10:05:47.486Z,0.3
2023-04-15T10:08:44.022Z,0.6
2023-04-15T10:11:39.776Z,0.8
2023-04-15T10:14:38.200Z,0.9
2023-04-15T10:17:36.708Z,0.5
2023-04-15T10:20:34.313Z,0.64
2023-04-15T10:23:31.857Z,0.64
2023-04-15T10:26:28.398Z,1.1800000000000002
2023-04-15T10:29:25.980Z,1.56
2023-04-15T10:32:23.487Z,0.86
2023-04-15T10:35:22.068Z,0.9600000000000002
2023-04-15T10:38:28.591Z,1
2023-04-15T10:41:25.192Z,0.9800000000000001
2023-04-15T10:44:22.686Z,0.54
2023-04-15T10:47:21.657Z,0.8
2023-04-15T10:50:20.870Z,1.28
2023-04-15T10:53:23.344Z,0.5800000000000001
2023-04-15T10:56:18.879Z,0.72
2023-04-15T10:59:16.475Z,1.98
2023-04-15T11:02:22.264Z,0.9
2023-04-15T11:05:30.603Z,0.6799999999999999
2023-04-15T11:08:32.096Z,1.5599999999999998
2023-04-15T11:11:32.635Z,0.9800000000000001
2023-04-15T11:14:28.203Z,1.6199999999999999
2023-04-15T11:17:28.787Z,6.08
2023-04-15T11:20:25.312Z,3.84
2023-04-15T11:23:26.871Z,2.7600000000000002
2023-04-15T11:26:27.398Z,2.94
2023-04-15T11:29:28.967Z,3.5799999999999996
2023-04-15T11:32:24.532Z,1.8800000000000001
2023-04-15T11:35:21.100Z,1.3199999999999998
2023-04-15T11:38:17.621Z,1.9
2023-04-15T11:41:15.193Z,0.9199999999999999
2023-04-15T11:44:15.757Z,2.88
2023-04-15T11:47:17.305Z,0.9199999999999999
2023-04-15T11:50:15.895Z,0.8200000000000001
2023-04-15T11:53:13.405Z,1.0399999999999998
2023-04-15T11:56:17.916Z,0.56
2023-04-15T11:59:15.496Z,1.1800000000000002
2023-04-15T12:02:14.177Z,1.8400000000000003
2023-04-15T12:05:10.613Z,4.46
2023-04-15T12:11:17.695Z,30.119999999999997
2023-04-15T12:14:22.263Z,1.12
2023-04-15T12:17:22.794Z,1.42
2023-04-15T12:20:22.342Z,1.6400000000000001
2023-04-15T12:23:19.887Z,0.9600000000000002
2023-04-15T12:26:15.423Z,1
2023-04-15T12:29:13.996Z,1.46
2023-04-15T12:32:15.623Z,0.7399999999999999
2023-04-15T12:35:13.093Z,0.7399999999999999
2023-04-15T12:38:10.639Z,0.9
2023-04-15T12:41:06.224Z,1.44
2023-04-15T12:44:02.019Z,1.08
2023-04-15T12:46:58.404Z,0.8200000000000001
2023-04-15T12:49:54.894Z,1.8800000000000001
2023-04-15T12:52:50.455Z,3.1800000000000006
2023-04-15T12:55:46.042Z,2.22
2023-04-15T12:58:43.622Z,4.28
2023-04-15T13:01:41.154Z,2.84
2023-04-15T13:04:37.715Z,2.8200000000000003
2023-04-15T13:07:34.228Z,1.8
2023-04-15T13:10:30.793Z,3.8200000000000003
2023-04-15T13:13:28.378Z,6.18
2023-04-15T13:16:24.975Z,4.159999999999999
2023-04-15T13:19:21.493Z,2.2399999999999998
2023-04-15T13:22:19.064Z,2.6599999999999997
2023-04-15T13:25:15.618Z,1.3800000000000001
2023-04-15T13:28:12.166Z,1.3800000000000001
2023-04-15T13:31:09.739Z,1.6199999999999999
2023-04-15T13:34:06.518Z,0.7399999999999999
2023-04-15T13:37:05.780Z,1.8
2023-04-15T13:40:03.384Z,1.58
2023-04-15T13:42:59.956Z,0.9400000000000001
2023-04-15T13:45:55.532Z,0.8400000000000001
2023-04-15T13:48:52.102Z,0.5
2023-04-15T13:51:47.633Z,0.9800000000000001
2023-04-15T13:54:43.198Z,1.9
2023-04-15T13:57:38.738Z,1.5799999999999998
2023-04-15T14:00:35.360Z,2.22
2023-04-15T14:03:31.062Z,3.94
2023-04-15T14:06:28.425Z,2.2600000000000002
2023-04-15T14:09:26.147Z,0.9600000000000002
2023-04-15T14:12:21.525Z,1.8
2023-04-15T14:15:18.088Z,1.6
2023-04-15T14:18:13.662Z,2.12
2023-04-15T14:21:09.211Z,1.08
2023-04-15T14:24:06.769Z,0.9199999999999999
2023-04-15T14:27:03.370Z,1.3
2023-04-15T14:29:59.885Z,2.1399999999999997
2023-04-15T14:32:56.547Z,0.8400000000000001
2023-04-15T14:35:52.025Z,0.9
2023-04-15T14:38:48.637Z,2.2600000000000002
2023-04-15T14:41:44.117Z,1.5599999999999998
2023-04-15T14:44:40.666Z,1.5
2023-04-15T14:47:37.252Z,1.0399999999999998
2023-04-15T14:50:33.831Z,1.44
2023-04-15T14:53:32.342Z,0.7799999999999999
2023-04-15T14:56:28.910Z,1.1800000000000002
2023-04-15T14:59:25.487Z,1.6600000000000001
2023-04-15T15:02:37.455Z,2.46
2023-04-15T15:05:22.660Z,15.319999999999999
2023-04-15T15:08:18.148Z,4.8
2023-04-15T15:11:13.692Z,2.24
2023-04-15T15:14:09.261Z,2.7600000000000002
2023-04-15T15:17:05.849Z,2.2600000000000002
2023-04-15T15:20:03.370Z,3.7600000000000002
2023-04-15T15:22:58.939Z,4.540000000000001
2023-04-15T15:25:54.529Z,6.0200000000000005
2023-04-15T15:28:50.064Z,3.16
2023-04-15T15:31:46.792Z,1.6600000000000001
2023-04-15T15:34:42.181Z,1.8399999999999999
2023-04-15T15:37:38.797Z,1.42
2023-04-15T15:40:36.296Z,2.22
2023-04-15T15:43:32.909Z,2.54
2023-04-15T15:46:31.563Z,2.84
2023-04-15T15:49:28.001Z,2.44
2023-04-15T15:52:23.549Z,2.2399999999999998
2023-04-15T15:55:19.094Z,1.6400000000000001
2023-04-15T15:58:14.672Z,1.3199999999999998
2023-04-15T16:01:11.229Z,1.1800000000000002
2023-04-15T16:04:07.975Z,1.72
2023-04-15T16:07:04.366Z,2.0599999999999996
2023-04-15T16:09:59.893Z,2.34
2023-04-15T16:12:55.420Z,4.26
2023-04-15T16:15:51.025Z,4.08
2023-04-15T16:18:46.593Z,2.8400000000000003
2023-04-15T16:21:43.193Z,6.159999999999999
2023-04-15T16:24:38.727Z,5.9
2023-04-15T16:27:40.762Z,7.4799999999999995
2023-04-15T16:30:37.818Z,6.540000000000001
2023-04-15T16:33:33.355Z,8.139999999999999
2023-04-15T16:36:28.953Z,11.14
2023-04-15T16:39:24.498Z,11.28
2023-04-15T16:42:20.042Z,8.8
2023-04-15T16:45:15.594Z,12.219999999999999
2023-04-15T16:48:11.207Z,9.8
2023-04-15T16:51:07.697Z,11.079999999999998
2023-04-15T16:54:03.282Z,12.799999999999999
2023-04-15T16:56:58.872Z,9.66
2023-04-15T16:59:55.493Z,10.9
2023-04-15T17:02:51.094Z,13.3
2023-04-15T17:05:47.528Z,11.780000000000001
2023-04-15T17:08:44.107Z,8.940000000000001
2023-04-15T17:11:40.681Z,9.040000000000001
2023-04-15T17:14:38.210Z,10.32
2023-04-15T17:17:33.781Z,12.100000000000001
2023-04-15T17:20:29.344Z,14.260000000000002
2023-04-15T17:23:25.903Z,16.54
2023-04-15T17:26:23.454Z,18.080000000000002
2023-04-15T17:29:19.013Z,25.240000000000002
2023-04-15T17:32:14.600Z,51
2023-04-15T17:35:10.101Z,28
2023-04-15T17:38:07.683Z,35.08
2023-04-15T17:41:05.286Z,31.72
2023-04-15T17:44:01.908Z,19.16
2023-04-15T17:46:58.353Z,23.159999999999997
2023-04-15T17:49:53.952Z,11.3
2023-04-15T17:52:50.517Z,9.6
2023-04-15T17:55:46.025Z,14.24
2023-04-15T17:58:41.612Z,24.88
2023-04-15T18:01:38.229Z,13.02
2023-04-15T18:04:34.910Z,10.459999999999999
2023-04-15T18:07:30.266Z,9.2
2023-04-15T18:10:27.860Z,8.1
2023-04-15T18:13:23.396Z,9.06
2023-04-15T18:16:21.033Z,9.32
2023-04-15T18:19:17.515Z,9.6
2023-04-15T18:22:13.093Z,10.16
2023-04-15T18:25:10.624Z,11.42
2023-04-15T18:28:07.198Z,14.579999999999998
2023-04-15T18:31:03.717Z,17.3
2023-04-15T18:33:59.292Z,21.959999999999997
2023-04-15T18:36:56.992Z,21.259999999999998
2023-04-15T18:39:53.432Z,16.32
2023-04-15T18:42:48.969Z,10.84
2023-04-15T18:45:45.549Z,10.64
2023-04-15T18:48:41.120Z,12.58
2023-04-15T18:51:36.709Z,11.7
2023-04-15T18:54:34.206Z,12.680000000000001
2023-04-15T18:57:32.242Z,22.540000000000003
2023-04-15T19:00:32.361Z,17
2023-04-15T19:03:28.917Z,19.78
2023-04-15T19:06:24.457Z,13.440000000000001
2023-04-15T19:09:20.006Z,10.719999999999999
2023-04-15T19:12:15.564Z,6.919999999999999
2023-04-15T19:15:11.142Z,6.04
2023-04-15T19:18:10.729Z,4.88
2023-04-15T19:21:07.217Z,5.260000000000001
2023-04-15T19:24:03.800Z,6.159999999999999
2023-04-15T19:26:59.365Z,6.279999999999999
2023-04-15T19:29:55.918Z,9.8
2023-04-15T19:32:52.520Z,12.419999999999998
2023-04-15T19:35:50.167Z,11.02
2023-04-15T19:38:45.615Z,10.34
2023-04-15T19:41:44.181Z,6.659999999999999
2023-04-15T19:44:42.694Z,9.7
2023-04-15T19:47:40.318Z,7.779999999999999
2023-04-15T19:50:38.820Z,6.220000000000001
2023-04-15T19:53:35.358Z,3.54
2023-04-15T19:56:32.906Z,3.8
2023-04-15T19:59:31.500Z,4.359999999999999
2023-04-15T20:02:29.135Z,4.1
2023-04-15T20:05:25.588Z,5.74
2023-04-15T20:08:24.156Z,7.94
2023-04-15T20:11:21.698Z,7.94
2023-04-15T20:14:17.250Z,6.860000000000001
2023-04-15T20:17:14.934Z,7.459999999999999
2023-04-15T20:20:10.438Z,6.7
2023-04-15T20:23:06.966Z,5.92
2023-04-15T20:26:03.524Z,5.9
2023-04-15T20:29:00.082Z,8.120000000000001
2023-04-15T20:31:55.629Z,7.139999999999999
2023-04-15T20:34:51.179Z,5.8999999999999995
2023-04-15T20:37:48.765Z,5.7
2023-04-15T20:40:46.288Z,5.4799999999999995
2023-04-15T20:43:41.843Z,5.1
2023-04-15T20:46:37.460Z,5.380000000000001
2023-04-15T20:49:34.971Z,5.88
2023-04-15T20:52:30.507Z,4.5600000000000005
2023-04-15T20:55:26.065Z,4.38
2023-04-15T20:58:21.630Z,3.9799999999999995
2023-04-15T21:01:19.250Z,4.56
2023-04-15T21:04:14.762Z,3.46
2023-04-15T21:07:11.388Z,4.06
2023-04-15T21:10:07.873Z,3.6800000000000006
2023-04-15T21:13:03.450Z,4.06
2023-04-15T21:16:00.052Z,3.6399999999999997
2023-04-15T21:18:55.582Z,4.260000000000001
2023-04-15T21:21:51.140Z,4.260000000000001
2023-04-15T21:24:46.725Z,3.84
2023-04-15T21:27:43.250Z,3.2399999999999998
2023-04-15T21:30:39.836Z,3.06
2023-04-15T21:33:35.368Z,2.52
2023-04-15T21:36:31.978Z,2.5599999999999996
2023-04-15T21:39:28.496Z,2.28
2023-04-15T21:42:24.073Z,2.52
2023-04-15T21:45:20.603Z,2.34
2023-04-15T21:48:17.274Z,2.52
2023-04-15T21:51:14.744Z,2.5
2023-04-15T21:54:10.286Z,2.56
2023-04-15T21:57:05.870Z,1.86
2023-04-15T22:00:01.438Z,7.640000000000001
2023-04-15T22:02:57.080Z,8.34
2023-04-15T22:05:53.529Z,3.5
2023-04-15T22:08:57.062Z,2.48
2023-04-15T22:11:54.641Z,2.1199999999999997
2023-04-15T22:14:51.198Z,2.34
2023-04-15T22:17:48.799Z,1.78
2023-04-15T22:20:45.329Z,1.8
2023-04-15T22:23:41.863Z,1.42
2023-04-15T22:26:38.386Z,1.46
2023-04-15T22:29:34.972Z,1.4
2023-04-15T22:32:30.526Z,1.2599999999999998
2023-04-15T22:35:27.067Z,1.1400000000000001
2023-04-15T22:38:24.680Z,1.16
2023-04-15T22:41:23.245Z,1.48
2023-04-15T22:44:20.756Z,1.4
2023-04-15T22:47:19.381Z,1.1
2023-04-15T22:50:16.898Z,1.1400000000000001
2023-04-15T22:53:12.483Z,1.22
2023-04-15T22:56:11.008Z,1.2
2023-04-15T22:59:07.780Z,1.44
2023-04-15T23:02:04.177Z,1.3400000000000003
2023-04-15T23:04:59.821Z,1.52
2023-04-15T23:07:58.216Z,1.48
2023-04-15T23:10:54.756Z,1.3
2023-04-15T23:13:53.359Z,1.6800000000000002
2023-04-15T23:16:54.953Z,1.72
2023-04-15T23:19:50.464Z,1.78
2023-04-15T23:22:45.997Z,2.16
2023-04-15T23:25:41.549Z,1.92
2023-04-15T23:28:38.135Z,2.0799999999999996
2023-04-15T23:31:40.667Z,1.42
2023-04-15T23:34:38.280Z,1.8199999999999998
2023-04-15T23:37:34.787Z,1.9600000000000002
2023-04-15T23:40:30.333Z,2.28
2023-04-15T23:43:27.909Z,2.3600000000000003
2023-04-15T23:46:25.521Z,1.8800000000000001
2023-04-15T23:49:21.055Z,2.2600000000000002
2023-04-15T23:52:16.596Z,2
2023-04-15T23:55:13.139Z,2.4
2023-04-15T23:58:09.693Z,3.1399999999999997
